Time;durP1;ratioP1;P1;durP2;ratioP2;P2;SDS_P1;SDS_P2;PMS_P1;PMS_P2;Temp;Humidity;BMP_temperature;BMP_pressure;BME280_temperature;BME280_humidity;BME280_pressure;Samples;Min_cycle;Max_cycle;Signal;HPM_P1;HPM_P2
2021/03/05 08:38:40;;;;;;;7.53;2.05;;;17.10;98.60;;;;;;5098748;27;21014;-67
2021/03/05 08:41:17;;;;;;;4.20;1.67;;;17.30;98.90;;;;;;5108801;28;20054;-67
2021/03/05 08:43:43;;;;;;;4.35;1.65;;;17.40;98.80;;;;;;5108121;28;20031;-67
2021/03/05 08:46:09;;;;;;;4.18;1.73;;;17.50;98.50;;;;;;5108718;28;20387;-65
2021/03/05 08:48:41;;;;;;;7.57;2.40;;;17.70;98.90;;;;;;5107312;28;20024;-68
2021/03/05 08:51:16;;;;;;;12.75;3.30;;;17.80;99.90;;;;;;5108078;28;20055;-66
2021/03/05 08:53:48;;;;;;;18.33;4.47;;;17.80;99.90;;;;;;5108424;28;20043;-67
2021/03/05 08:56:19;;;;;;;13.55;3.80;;;17.80;99.90;;;;;;5107860;28;20032;-67
2021/03/05 08:59:00;;;;;;;13.77;3.40;;;17.90;99.90;;;;;;5107547;28;20073;-66
2021/03/05 09:01:31;;;;;;;10.43;3.10;;;18.00;99.90;;;;;;5108031;28;20053;-66
2021/03/05 09:04:17;;;;;;;11.73;2.60;;;18.20;99.90;;;;;;5108249;28;20506;-64
2021/03/05 09:06:53;;;;;;;9.80;2.67;;;18.30;99.90;;;;;;5108853;28;20032;-63
2021/03/05 09:09:23;;;;;;;6.93;1.95;;;18.30;99.90;;;;;;5108554;28;20031;-63
2021/03/05 09:12:25;;;;;;;7.13;2.45;;;18.30;99.90;;;;;;5108107;28;20533;-63
2021/03/05 09:15:04;;;;;;;10.00;2.17;;;18.30;99.40;;;;;;5045154;28;20040;-63
2021/03/05 09:17:29;;;;;;;5.80;1.80;;;18.30;98.60;;;;;;5098708;28;20479;-65
2021/03/05 09:19:55;;;;;;;4.38;1.88;;;18.30;98.20;;;;;;5108478;28;20141;-63
2021/03/05 09:22:23;;;;;;;5.22;1.77;;;18.30;98.00;;;;;;5108255;28;20145;-63
2021/03/05 09:24:58;;;;;;;4.13;1.50;;;18.30;97.80;;;;;;5108509;28;20023;-64
2021/03/05 09:27:39;;;;;;;5.45;1.77;;;18.30;97.90;;;;;;5108433;28;20024;-64
2021/03/05 09:30:22;;;;;;;3.30;1.42;;;18.30;97.90;;;;;;5108460;28;20032;-64
2021/03/05 09:32:55;;;;;;;3.97;1.63;;;18.20;97.40;;;;;;5088076;28;20032;-64
2021/03/05 09:35:30;;;;;;;3.10;1.48;;;18.20;97.40;;;;;;5087793;28;20025;-65
2021/03/05 09:37:57;;;;;;;3.55;1.73;;;18.10;97.30;;;;;;5087746;28;20044;-64
2021/03/05 09:40:28;;;;;;;5.65;1.90;;;18.10;97.30;;;;;;5087639;28;20025;-64
2021/03/05 09:42:55;;;;;;;3.33;1.17;;;18.00;97.30;;;;;;5087709;28;20154;-63
2021/03/05 09:45:41;;;;;;;5.57;1.63;;;18.00;97.10;;;;;;5088511;28;20017;-64
2021/03/05 09:48:25;;;;;;;3.00;1.30;;;17.90;97.10;;;;;;5103443;28;20024;-64
2021/03/05 09:50:57;;;;;;;3.65;1.38;;;17.90;97.10;;;;;;5090310;28;20432;-64
2021/03/05 09:53:27;;;;;;;3.88;1.48;;;17.80;97.00;;;;;;5094038;28;20029;-65
2021/03/05 09:55:55;;;;;;;4.07;1.40;;;17.80;96.90;;;;;;5094245;28;20024;-64
2021/03/05 09:58:21;;;;;;;3.72;1.52;;;17.80;96.90;;;;;;5094188;28;20088;-65
2021/03/05 10:00:48;;;;;;;3.28;1.60;;;17.80;96.80;;;;;;5094182;28;20497;-64
2021/03/05 10:03:15;;;;;;;2.85;1.45;;;17.70;96.70;;;;;;5094012;28;20020;-65
2021/03/05 10:05:42;;;;;;;2.60;1.30;;;17.70;96.20;;;;;;5094263;28;20024;-63
2021/03/05 10:08:12;;;;;;;3.72;1.40;;;17.70;95.90;;;;;;5094566;28;20050;-65
2021/03/05 10:11:02;;;;;;;3.88;1.60;;;17.60;96.00;;;;;;5094345;28;20031;-67
2021/03/05 10:13:56;;;;;;;2.60;1.45;;;17.60;96.10;;;;;;5093861;28;20539;-66
2021/03/05 10:16:32;;;;;;;2.47;1.02;;;17.60;95.80;;;;;;5093825;28;20057;-65
2021/03/05 10:19:02;;;;;;;2.55;1.20;;;17.60;95.70;;;;;;5093491;28;20046;-63
2021/03/05 10:21:29;;;;;;;2.05;1.00;;;17.50;95.50;;;;;;5092365;28;20024;-63
2021/03/05 10:23:55;;;;;;;2.78;1.30;;;17.50;95.30;;;;;;5088960;28;20035;-65
2021/03/05 10:26:27;;;;;;;3.33;1.30;;;17.50;95.30;;;;;;5073170;28;20103;-66
2021/03/05 10:29:00;;;;;;;2.78;1.08;;;17.50;95.30;;;;;;5084890;28;20032;-64
2021/03/05 10:31:44;;;;;;;5.32;1.50;;;17.50;95.10;;;;;;5083750;28;20060;-66
2021/03/05 10:34:25;;;;;;;3.80;1.10;;;17.50;95.90;;;;;;5082797;28;20058;-67
2021/03/05 10:36:52;;;;;;;2.42;1.10;;;17.50;95.80;;;;;;5092504;28;20036;-69
2021/03/05 10:39:18;;;;;;;4.85;1.05;;;17.50;94.80;;;;;;5101606;28;20027;-69
2021/03/05 10:41:51;;;;;;;1.80;0.90;;;17.50;94.80;;;;;;5109652;28;20146;-69
2021/03/05 10:44:17;;;;;;;2.60;1.00;;;17.60;94.60;;;;;;5109779;28;20110;-69
2021/03/05 10:46:42;;;;;;;1.60;0.90;;;17.60;94.70;;;;;;5098258;28;20116;-68
2021/03/05 10:49:08;;;;;;;2.42;0.80;;;17.60;94.80;;;;;;5091779;28;20032;-69
2021/03/05 10:51:34;;;;;;;2.15;0.80;;;17.70;94.70;;;;;;5092219;28;20028;-68
2021/03/05 10:53:59;;;;;;;3.67;1.02;;;17.70;94.60;;;;;;5092446;28;20148;-69
2021/03/05 10:56:26;;;;;;;1.88;1.00;;;17.80;94.70;;;;;;5092030;28;20024;-65
2021/03/05 10:58:53;;;;;;;3.58;1.05;;;17.80;94.50;;;;;;5092303;28;20115;-69
2021/03/05 11:01:19;;;;;;;3.58;1.38;;;17.80;95.40;;;;;;5090831;28;20024;-70
2021/03/05 11:03:44;;;;;;;4.72;1.67;;;17.90;95.30;;;;;;5092260;28;20072;-70
2021/03/05 11:06:10;;;;;;;6.32;1.80;;;17.90;94.70;;;;;;5091458;28;20695;-68
2021/03/05 11:08:36;;;;;;;5.13;2.40;;;17.90;95.10;;;;;;5092530;28;20375;-67
2021/03/05 11:11:01;;;;;;;3.65;1.98;;;17.90;95.30;;;;;;5090986;28;20023;-67
2021/03/05 11:13:27;;;;;;;5.60;2.40;;;18.00;94.90;;;;;;5091593;28;20434;-68
2021/03/05 11:15:52;;;;;;;4.28;1.92;;;17.90;94.60;;;;;;5091535;28;20020;-67
2021/03/05 11:18:18;;;;;;;6.13;2.50;;;18.00;94.90;;;;;;5091550;28;20506;-67
2021/03/05 11:20:43;;;;;;;5.45;2.40;;;18.00;95.00;;;;;;5091548;28;20500;-66
2021/03/05 11:23:09;;;;;;;5.28;2.10;;;18.10;94.40;;;;;;5092017;28;20024;-67
2021/03/05 11:25:35;;;;;;;4.50;2.20;;;18.00;94.70;;;;;;5091919;28;20020;-69
2021/03/05 11:28:00;;;;;;;5.60;1.95;;;18.10;94.90;;;;;;5090308;28;20020;-68
2021/03/05 11:30:26;;;;;;;4.13;2.08;;;18.20;94.80;;;;;;5091157;28;20059;-67
2021/03/05 11:32:52;;;;;;;3.53;2.00;;;18.20;94.90;;;;;;5090636;28;20464;-68
2021/03/05 11:35:18;;;;;;;5.47;2.10;;;18.20;94.40;;;;;;5090637;28;20036;-68
2021/03/05 11:37:43;;;;;;;5.82;2.15;;;18.20;94.40;;;;;;5091448;28;20068;-68
2021/03/05 11:40:10;;;;;;;4.28;1.98;;;18.20;94.40;;;;;;5091839;28;20031;-67
2021/03/05 11:42:35;;;;;;;4.95;2.33;;;18.20;94.30;;;;;;5091715;28;20020;-67
2021/03/05 11:45:05;;;;;;;4.82;2.08;;;18.20;94.10;;;;;;5091259;28;20022;-68
2021/03/05 11:47:32;;;;;;;4.20;1.85;;;18.20;94.30;;;;;;5090791;28;20062;-67
2021/03/05 11:49:57;;;;;;;4.53;1.80;;;18.30;94.30;;;;;;5091028;28;20032;-67
2021/03/05 11:52:23;;;;;;;3.05;1.48;;;18.30;94.10;;;;;;5091601;28;20084;-68
2021/03/05 11:54:49;;;;;;;3.70;1.70;;;18.30;94.00;;;;;;5091276;28;20091;-67
2021/03/05 11:57:14;;;;;;;2.78;1.50;;;18.30;94.10;;;;;;5089825;28;20511;-68
2021/03/05 11:59:40;;;;;;;3.45;1.48;;;18.30;94.40;;;;;;5090438;28;20032;-67
2021/03/05 12:02:06;;;;;;;4.45;1.20;;;18.40;94.00;;;;;;5091286;28;20028;-66
2021/03/05 12:04:31;;;;;;;2.47;1.45;;;18.40;94.30;;;;;;5090837;28;20024;-67
2021/03/05 12:06:57;;;;;;;3.88;1.45;;;18.50;94.50;;;;;;5090381;28;20391;-67
2021/03/05 12:09:23;;;;;;;3.67;1.40;;;18.50;94.50;;;;;;5090536;28;20122;-64
2021/03/05 12:11:48;;;;;;;4.30;1.67;;;18.50;94.50;;;;;;5090516;28;20039;-69
2021/03/05 12:14:14;;;;;;;3.28;1.20;;;18.50;94.30;;;;;;5073983;28;20024;-64
2021/03/05 12:16:39;;;;;;;2.60;1.20;;;18.50;94.10;;;;;;5090938;28;20032;-67
2021/03/05 12:19:05;;;;;;;5.35;1.42;;;18.50;94.40;;;;;;5091808;28;20031;-68
2021/03/05 12:21:31;;;;;;;4.20;1.20;;;18.50;94.30;;;;;;5090866;28;20024;-64
2021/03/05 12:23:57;;;;;;;2.67;1.05;;;18.60;94.40;;;;;;5090930;28;20020;-69
2021/03/05 12:26:23;;;;;;;2.22;0.95;;;18.60;94.60;;;;;;5091310;28;20085;-69
2021/03/05 12:28:48;;;;;;;4.18;1.00;;;18.70;94.70;;;;;;5090644;28;20020;-67
2021/03/05 12:31:15;;;;;;;4.10;1.23;;;18.80;94.50;;;;;;5088160;28;20111;-69
2021/03/05 12:33:43;;;;;;;2.50;0.98;;;18.70;94.10;;;;;;5091566;28;20039;-69
2021/03/05 12:36:10;;;;;;;2.58;1.20;;;18.80;94.30;;;;;;5090572;28;20032;-66
2021/03/05 12:38:37;;;;;;;2.22;0.98;;;18.80;94.10;;;;;;5091187;28;20049;-70
2021/03/05 12:41:02;;;;;;;3.20;1.17;;;18.80;94.00;;;;;;5090618;28;20020;-66
2021/03/05 12:43:28;;;;;;;2.25;1.08;;;18.90;93.90;;;;;;5089878;28;20429;-67
2021/03/05 12:45:54;;;;;;;7.40;1.10;;;18.90;94.00;;;;;;5090644;28;20039;-64
2021/03/05 12:48:19;;;;;;;1.70;0.77;;;18.90;93.90;;;;;;5089169;28;20034;-66
2021/03/05 12:50:45;;;;;;;2.20;0.98;;;19.00;93.60;;;;;;5091490;28;20122;-65
2021/03/05 12:53:10;;;;;;;1.95;0.90;;;19.00;94.30;;;;;;5090171;28;20085;-65
2021/03/05 12:55:36;;;;;;;2.92;0.80;;;19.00;93.50;;;;;;5090671;28;20044;-65
2021/03/05 12:58:02;;;;;;;3.42;0.77;;;19.10;94.30;;;;;;5090379;28;20468;-70
2021/03/05 13:00:28;;;;;;;1.77;0.80;;;19.10;94.30;;;;;;5090029;28;20518;-71
2021/03/05 13:02:53;;;;;;;2.25;0.75;;;19.10;94.00;;;;;;5089346;28;20047;-70
2021/03/05 13:05:19;;;;;;;1.60;0.70;;;19.10;93.90;;;;;;5088979;28;20069;-67
2021/03/05 13:07:44;;;;;;;1.52;0.70;;;19.10;93.80;;;;;;5088918;28;20024;-70
2021/03/05 13:10:12;;;;;;;0.82;0.60;;;19.10;93.70;;;;;;5088932;28;20089;-70
2021/03/05 13:12:37;;;;;;;1.67;0.68;;;19.10;93.70;;;;;;5089010;28;20100;-73
2021/03/05 13:15:04;;;;;;;2.03;0.73;;;19.00;93.60;;;;;;5088999;28;20103;-71
2021/03/05 13:17:30;;;;;;;3.00;0.82;;;19.00;93.60;;;;;;5088742;28;20325;-71
2021/03/05 13:19:55;;;;;;;1.15;0.60;;;19.00;93.50;;;;;;5089471;28;20474;-70
2021/03/05 13:22:21;;;;;;;2.60;0.80;;;19.00;93.40;;;;;;5088345;28;20532;-72
2021/03/05 13:24:47;;;;;;;1.50;0.70;;;19.00;93.40;;;;;;5092662;28;20074;-66
2021/03/05 13:27:13;;;;;;;1.23;0.70;;;19.00;93.10;;;;;;5092101;28;20028;-68
2021/03/05 13:29:38;;;;;;;2.55;0.77;;;19.00;93.20;;;;;;5093402;28;20050;-67
2021/03/05 13:32:04;;;;;;;1.67;1.20;;;19.00;93.20;;;;;;5092539;28;20390;-68
2021/03/05 13:34:30;;;;;;;2.88;1.30;;;18.90;93.10;;;;;;5092748;28;20039;-68
2021/03/05 13:36:55;;;;;;;2.70;1.23;;;18.90;93.00;;;;;;5092810;28;20479;-71
2021/03/05 13:39:21;;;;;;;2.70;1.58;;;18.90;93.00;;;;;;5092296;28;20103;-68
2021/03/05 13:41:47;;;;;;;2.33;1.10;;;18.90;93.00;;;;;;5092759;28;20024;-66
2021/03/05 13:44:13;;;;;;;1.95;1.02;;;18.90;93.00;;;;;;5092261;28;20077;-68
2021/03/05 13:46:39;;;;;;;2.22;1.20;;;18.90;93.00;;;;;;5092649;28;20040;-68
2021/03/05 13:49:05;;;;;;;1.77;0.98;;;18.90;92.90;;;;;;5092986;28;20403;-67
2021/03/05 13:51:31;;;;;;;1.73;1.23;;;18.90;93.00;;;;;;5093243;28;20036;-65
2021/03/05 13:53:56;;;;;;;2.10;1.00;;;18.90;93.00;;;;;;5093686;28;20028;-68
2021/03/05 13:56:22;;;;;;;1.83;1.08;;;18.90;93.10;;;;;;5093594;28;20024;-65
2021/03/05 13:58:47;;;;;;;2.10;0.98;;;18.90;93.10;;;;;;5093615;28;20033;-65
2021/03/05 14:01:14;;;;;;;1.83;0.90;;;18.90;93.10;;;;;;5092497;28;20098;-65
2021/03/05 14:03:39;;;;;;;2.05;1.00;;;19.00;93.00;;;;;;5093352;28;20040;-64
2021/03/05 14:06:05;;;;;;;3.15;1.00;;;18.90;92.90;;;;;;5093496;28;20016;-64
2021/03/05 14:08:31;;;;;;;3.30;0.90;;;18.90;93.00;;;;;;5092694;28;20028;-63
2021/03/05 14:10:56;;;;;;;2.05;0.90;;;19.00;93.20;;;;;;5093233;28;20020;-63
2021/03/05 14:13:23;;;;;;;2.50;0.82;;;19.00;93.00;;;;;;5087557;28;20065;-64
2021/03/05 14:15:49;;;;;;;1.52;0.90;;;19.00;93.00;;;;;;5093099;28;20062;-66
2021/03/05 14:18:14;;;;;;;2.28;0.90;;;18.90;92.90;;;;;;5093619;28;20523;-67
2021/03/05 14:20:40;;;;;;;2.28;0.93;;;18.90;92.90;;;;;;5092702;28;20107;-66
2021/03/05 14:23:06;;;;;;;3.60;0.88;;;18.90;93.00;;;;;;5092258;28;20020;-66
2021/03/05 14:25:32;;;;;;;2.63;1.20;;;18.90;92.90;;;;;;5092655;28;20016;-65
2021/03/05 14:27:58;;;;;;;2.83;0.93;;;18.90;93.00;;;;;;5093080;28;20032;-67
2021/03/05 14:30:24;;;;;;;1.80;0.90;;;18.80;93.00;;;;;;5092531;28;20024;-66
2021/03/05 14:32:50;;;;;;;1.65;0.70;;;18.80;92.90;;;;;;5092332;28;20024;-65
2021/03/05 14:35:16;;;;;;;1.45;1.00;;;18.90;93.20;;;;;;5084887;28;20107;-64
2021/03/05 14:37:42;;;;;;;2.40;0.80;;;18.90;93.30;;;;;;5092398;28;20036;-66
2021/03/05 14:40:08;;;;;;;1.70;0.80;;;18.90;93.40;;;;;;5092165;28;20372;-66
2021/03/05 14:42:34;;;;;;;2.60;0.75;;;19.00;93.30;;;;;;5094902;28;20039;-66
2021/03/05 14:45:00;;;;;;;2.20;0.80;;;19.10;93.40;;;;;;5092081;28;20027;-64
2021/03/05 14:47:25;;;;;;;3.72;0.75;;;19.10;93.40;;;;;;5092172;28;20074;-68
2021/03/05 14:49:51;;;;;;;2.72;0.80;;;19.10;93.40;;;;;;5092283;28;20113;-68
2021/03/05 14:52:17;;;;;;;3.10;0.90;;;19.20;93.60;;;;;;5091920;28;20154;-66
2021/03/05 14:54:42;;;;;;;1.58;0.75;;;19.20;93.70;;;;;;5092518;28;20020;-66
2021/03/05 14:57:08;;;;;;;2.88;0.80;;;19.20;93.70;;;;;;5092569;28;20073;-61
2021/03/05 14:59:34;;;;;;;1.92;0.75;;;19.40;93.90;;;;;;5092381;28;20511;-61
2021/03/05 15:01:59;;;;;;;7.55;1.00;;;19.50;94.20;;;;;;5092069;28;20450;-62
2021/03/05 15:04:25;;;;;;;4.80;0.82;;;19.60;94.20;;;;;;5091944;28;20104;-61
2021/03/05 15:06:51;;;;;;;5.55;0.57;;;19.70;94.10;;;;;;5092144;28;20456;-61
2021/03/05 15:09:16;;;;;;;5.55;0.80;;;19.70;94.20;;;;;;5091475;28;20111;-63
2021/03/05 15:11:42;;;;;;;4.45;0.90;;;19.80;94.90;;;;;;5090787;28;20475;-63
2021/03/05 15:14:08;;;;;;;1.55;0.60;;;19.90;94.80;;;;;;5092479;28;20028;-64
2021/03/05 15:16:34;;;;;;;3.90;0.50;;;19.90;95.00;;;;;;5091858;28;20027;-63
2021/03/05 15:19:00;;;;;;;9.38;0.90;;;20.00;95.40;;;;;;5091556;28;20020;-63
2021/03/05 15:21:26;;;;;;;1.30;0.60;;;20.00;94.70;;;;;;5090622;28;20027;-63
2021/03/05 15:23:51;;;;;;;2.92;0.50;;;20.00;94.70;;;;;;5091932;28;20371;-65
2021/03/05 15:26:17;;;;;;;2.05;0.52;;;20.10;94.20;;;;;;5091358;28;20426;-64
2021/03/05 15:28:42;;;;;;;5.10;0.70;;;20.10;94.30;;;;;;5091506;28;20020;-63
2021/03/05 15:31:08;;;;;;;9.77;0.90;;;20.10;94.70;;;;;;5091502;28;20433;-65
2021/03/05 15:33:34;;;;;;;6.07;0.93;;;20.10;95.30;;;;;;5091462;28;20456;-66
2021/03/05 15:35:59;;;;;;;8.13;0.93;;;20.20;95.00;;;;;;5091650;28;20573;-64
2021/03/05 15:38:25;;;;;;;3.63;0.70;;;20.20;94.90;;;;;;5087928;28;20059;-64
2021/03/05 15:40:51;;;;;;;22.17;1.25;;;20.30;94.80;;;;;;5091582;28;20024;-63
2021/03/05 15:43:16;;;;;;;4.68;0.85;;;20.30;94.30;;;;;;5091016;28;20024;-63
2021/03/05 15:45:42;;;;;;;4.05;0.55;;;20.40;94.30;;;;;;5090622;28;20094;-63
2021/03/05 15:48:08;;;;;;;1.00;0.40;;;20.40;94.10;;;;;;5091452;28;20043;-63
2021/03/05 15:50:34;;;;;;;6.75;0.70;;;20.30;94.10;;;;;;5091077;28;20521;-64
2021/03/05 15:53:00;;;;;;;3.70;0.57;;;20.30;94.00;;;;;;5091508;28;20028;-63
2021/03/05 15:55:25;;;;;;;2.78;0.60;;;20.30;93.60;;;;;;5091037;28;20484;-64
2021/03/05 15:57:51;;;;;;;2.95;0.40;;;20.40;93.30;;;;;;5089558;28;20028;-61
2021/03/05 16:00:17;;;;;;;1.90;0.70;;;20.40;93.10;;;;;;5090161;28;20024;-64
2021/03/05 16:02:43;;;;;;;2.20;0.47;;;20.40;93.30;;;;;;5090605;28;20024;-64
2021/03/05 16:05:10;;;;;;;1.17;0.40;;;20.40;93.30;;;;;;5100476;28;20028;-64
2021/03/05 16:07:36;;;;;;;2.38;0.50;;;20.30;92.90;;;;;;5090057;28;20044;-65
2021/03/05 16:10:02;;;;;;;2.53;0.50;;;20.20;92.70;;;;;;5087912;28;20103;-66
2021/03/05 16:12:28;;;;;;;2.15;0.60;;;20.10;92.40;;;;;;5090519;28;20027;-64
2021/03/05 16:14:53;;;;;;;1.30;0.50;;;20.10;92.30;;;;;;5089843;28;20043;-64
2021/03/05 16:17:19;;;;;;;1.90;0.50;;;20.00;92.20;;;;;;5089018;28;20099;-63
2021/03/05 16:19:45;;;;;;;1.67;0.50;;;20.00;92.50;;;;;;5081533;28;20021;-64
2021/03/05 16:22:13;;;;;;;3.42;0.47;;;19.90;92.30;;;;;;5089093;28;20020;-64
2021/03/05 16:24:39;;;;;;;1.35;0.40;;;19.90;92.40;;;;;;5090672;28;20023;-63
2021/03/05 16:27:05;;;;;;;1.10;0.52;;;19.80;92.80;;;;;;5085013;28;20393;-63
2021/03/05 16:29:31;;;;;;;1.10;0.43;;;19.80;92.40;;;;;;5082374;28;20032;-64
2021/03/05 16:31:56;;;;;;;1.65;0.65;;;19.80;92.40;;;;;;5090382;28;20024;-63
2021/03/05 16:34:23;;;;;;;1.52;0.50;;;19.80;92.50;;;;;;5089661;28;20028;-62
2021/03/05 16:36:49;;;;;;;1.17;0.43;;;19.70;92.40;;;;;;5092657;28;20024;-66
2021/03/05 16:39:14;;;;;;;2.30;0.73;;;19.70;92.60;;;;;;5089973;28;20480;-63
2021/03/05 16:41:43;;;;;;;1.70;0.65;;;19.70;92.50;;;;;;5090850;28;20052;-63
2021/03/05 16:44:10;;;;;;;1.83;0.55;;;19.60;92.50;;;;;;5091160;28;20024;-63
2021/03/05 16:46:38;;;;;;;2.05;0.70;;;19.60;92.70;;;;;;5090999;28;20472;-63
2021/03/05 16:49:05;;;;;;;1.58;0.60;;;19.70;92.50;;;;;;5090429;28;20074;-64
2021/03/05 16:51:31;;;;;;;1.83;0.70;;;19.70;92.40;;;;;;5090589;28;20030;-63
2021/03/05 16:53:57;;;;;;;1.30;0.52;;;19.70;92.40;;;;;;5090561;28;20106;-64
2021/03/05 16:56:22;;;;;;;1.33;0.60;;;19.70;92.40;;;;;;5090243;28;20028;-64
2021/03/05 16:58:48;;;;;;;2.20;0.60;;;19.70;92.40;;;;;;5092601;28;20051;-63
2021/03/05 17:01:14;;;;;;;1.88;0.50;;;19.60;92.50;;;;;;5093839;28;20093;-64
2021/03/05 17:03:39;;;;;;;1.65;0.60;;;19.70;92.50;;;;;;5094384;28;20065;-66
2021/03/05 17:06:05;;;;;;;2.00;0.73;;;19.60;92.70;;;;;;5094297;28;20020;-63
2021/03/05 17:08:31;;;;;;;2.35;0.60;;;19.70;93.40;;;;;;5094205;28;20077;-63
2021/03/05 17:10:57;;;;;;;2.33;0.70;;;19.70;93.00;;;;;;5094301;28;20426;-62
2021/03/05 17:13:23;;;;;;;2.10;0.80;;;19.70;93.10;;;;;;5094066;28;20028;-64
2021/03/05 17:15:48;;;;;;;2.42;0.57;;;19.70;93.70;;;;;;5094438;28;20028;-63
2021/03/05 17:18:14;;;;;;;4.32;0.60;;;19.70;93.70;;;;;;5093985;28;20143;-63
2021/03/05 17:20:40;;;;;;;3.47;0.80;;;19.80;93.50;;;;;;5094299;28;20048;-62
2021/03/05 17:23:05;;;;;;;1.42;0.57;;;19.70;92.70;;;;;;5093941;28;20028;-63
2021/03/05 17:25:31;;;;;;;4.75;0.90;;;19.70;92.80;;;;;;5093707;28;20073;-65
2021/03/05 17:27:57;;;;;;;6.35;1.10;;;19.80;94.10;;;;;;5094048;28;20040;-62
2021/03/05 17:30:22;;;;;;;4.38;1.00;;;20.00;94.10;;;;;;5093473;28;20028;-64
2021/03/05 17:32:48;;;;;;;2.03;0.82;;;20.10;94.40;;;;;;5093656;28;20036;-64
2021/03/05 17:35:16;;;;;;;4.25;0.93;;;20.20;94.10;;;;;;5093501;28;20016;-65
2021/03/05 17:37:41;;;;;;;4.50;0.90;;;20.20;93.90;;;;;;5093184;28;20036;-66
2021/03/05 17:40:08;;;;;;;4.28;0.80;;;20.20;95.90;;;;;;5092833;28;20505;-66
2021/03/05 17:42:33;;;;;;;6.60;0.82;;;20.30;95.20;;;;;;5093722;28;20043;-65
2021/03/05 17:44:59;;;;;;;1.27;0.70;;;20.40;95.80;;;;;;5093677;28;20522;-67
2021/03/05 17:47:24;;;;;;;3.60;0.80;;;20.40;95.20;;;;;;5093613;28;20395;-66
2021/03/05 17:49:50;;;;;;;6.47;0.80;;;20.50;94.20;;;;;;5092952;28;20407;-65
2021/03/05 17:52:16;;;;;;;2.13;0.90;;;20.40;94.30;;;;;;5093211;28;20023;-65
2021/03/05 17:54:41;;;;;;;3.17;0.80;;;20.40;94.30;;;;;;5092928;28;20028;-64
2021/03/05 17:57:08;;;;;;;4.78;0.80;;;20.40;94.10;;;;;;5093561;28;20036;-64
2021/03/05 17:59:35;;;;;;;2.53;1.00;;;20.40;93.50;;;;;;5092851;28;20051;-64
2021/03/05 18:02:01;;;;;;;2.60;0.80;;;20.50;93.70;;;;;;5093271;28;20543;-64
2021/03/05 18:04:26;;;;;;;2.90;1.20;;;20.50;93.40;;;;;;5092471;28;20099;-64
2021/03/05 18:06:52;;;;;;;4.10;1.25;;;20.50;93.00;;;;;;5093095;28;20032;-64
2021/03/05 18:09:18;;;;;;;3.70;0.80;;;20.50;92.80;;;;;;5092416;28;20476;-64
2021/03/05 18:11:43;;;;;;;1.70;1.10;;;20.50;92.80;;;;;;5091331;28;20476;-64
2021/03/05 18:14:09;;;;;;;2.10;1.17;;;20.60;92.70;;;;;;5093301;28;20515;-64
2021/03/05 18:16:34;;;;;;;2.13;1.40;;;20.60;92.70;;;;;;5093119;28;20061;-64
2021/03/05 18:19:00;;;;;;;2.00;1.10;;;20.60;92.70;;;;;;5092013;28;20024;-64
2021/03/05 18:21:26;;;;;;;1.50;1.10;;;20.70;92.60;;;;;;5092291;28;20460;-65
2021/03/05 18:23:51;;;;;;;1.65;0.90;;;20.70;92.60;;;;;;5092356;28;20032;-61
2021/03/05 18:26:17;;;;;;;4.60;1.10;;;20.70;92.80;;;;;;5092816;28;20036;-62
2021/03/05 18:28:43;;;;;;;4.43;1.20;;;20.60;92.90;;;;;;5093130;28;20062;-62
2021/03/05 18:31:08;;;;;;;1.52;0.93;;;20.70;92.50;;;;;;5092976;28;20028;-62
2021/03/05 18:33:35;;;;;;;2.15;0.98;;;20.70;92.40;;;;;;5091407;28;20024;-62
2021/03/05 18:36:03;;;;;;;2.88;1.00;;;20.70;92.30;;;;;;5092826;28;20028;-62
2021/03/05 18:38:29;;;;;;;1.73;1.02;;;20.70;92.20;;;;;;5090486;28;20037;-63
2021/03/05 18:40:55;;;;;;;1.70;1.10;;;20.70;92.20;;;;;;5092930;28;20109;-63
2021/03/05 18:43:20;;;;;;;2.00;1.05;;;20.60;92.10;;;;;;5092888;28;20034;-63
2021/03/05 18:45:46;;;;;;;3.05;1.00;;;20.60;92.10;;;;;;5093317;28;20028;-62
2021/03/05 18:48:12;;;;;;;1.60;0.90;;;20.60;92.10;;;;;;5092894;28;20115;-63
2021/03/05 18:50:37;;;;;;;4.53;1.00;;;20.60;92.10;;;;;;5093441;28;20032;-62
2021/03/05 18:53:03;;;;;;;1.98;0.75;;;20.60;92.10;;;;;;5093194;28;20494;-64
2021/03/05 18:55:29;;;;;;;1.70;1.00;;;20.60;92.10;;;;;;5092938;28;20016;-67
2021/03/05 18:57:54;;;;;;;2.25;1.02;;;20.60;92.00;;;;;;5093115;28;20491;-63
2021/03/05 19:00:21;;;;;;;2.80;0.90;;;20.60;92.00;;;;;;5092157;28;20060;-61
2021/03/05 19:02:47;;;;;;;11.60;1.20;;;20.80;93.10;;;;;;5092283;28;20020;-60
2021/03/05 19:05:14;;;;;;;2.67;1.02;;;20.90;92.50;;;;;;5092555;28;20476;-63
2021/03/05 19:07:40;;;;;;;1.92;0.98;;;21.00;92.00;;;;;;5092878;28;20032;-59
2021/03/05 19:10:06;;;;;;;3.35;0.85;;;21.00;91.80;;;;;;5092673;28;20032;-61
2021/03/05 19:12:32;;;;;;;2.33;1.02;;;21.10;91.60;;;;;;5092204;28;20027;-63
2021/03/05 19:14:58;;;;;;;2.22;0.77;;;21.10;91.50;;;;;;5092788;28;20028;-65
2021/03/05 19:17:24;;;;;;;1.65;1.10;;;21.10;91.70;;;;;;5092464;28;20031;-62
2021/03/05 19:19:50;;;;;;;1.50;0.90;;;21.20;91.70;;;;;;5092692;28;20020;-62
2021/03/05 19:22:15;;;;;;;1.48;0.90;;;21.20;91.60;;;;;;5091290;28;20031;-63
2021/03/05 19:24:41;;;;;;;2.53;0.80;;;21.30;91.70;;;;;;5092362;28;20472;-61
2021/03/05 19:27:07;;;;;;;1.70;0.90;;;21.20;92.00;;;;;;5092140;28;20036;-63
2021/03/05 19:29:32;;;;;;;1.92;0.90;;;21.20;91.80;;;;;;5090534;28;20031;-61
2021/03/05 19:31:58;;;;;;;2.05;0.90;;;21.20;91.60;;;;;;5092175;28;20505;-63
2021/03/05 19:34:23;;;;;;;1.20;0.82;;;21.20;91.40;;;;;;5086217;28;20035;-63
2021/03/05 19:36:50;;;;;;;1.35;0.93;;;21.20;91.30;;;;;;5092529;28;20034;-63
2021/03/05 19:39:16;;;;;;;1.60;0.88;;;21.20;91.40;;;;;;5097170;28;20051;-63
2021/03/05 19:41:41;;;;;;;1.70;1.00;;;21.10;91.40;;;;;;5098113;28;20492;-62
2021/03/05 19:44:07;;;;;;;2.40;0.80;;;21.10;91.50;;;;;;5089718;28;20036;-62
2021/03/05 19:46:33;;;;;;;1.23;0.80;;;21.00;91.80;;;;;;5085823;28;20028;-61
2021/03/05 19:49:00;;;;;;;1.77;1.10;;;20.90;91.50;;;;;;5086261;28;20024;-61
2021/03/05 19:51:26;;;;;;;2.22;0.90;;;20.90;91.50;;;;;;5084373;28;20028;-61
2021/03/05 19:53:52;;;;;;;1.35;0.80;;;20.90;91.50;;;;;;5087070;28;20024;-60
2021/03/05 19:56:19;;;;;;;1.25;0.82;;;20.80;91.50;;;;;;5094610;28;20092;-61
2021/03/05 19:58:45;;;;;;;2.17;0.98;;;20.70;91.60;;;;;;5079923;28;20028;-61
2021/03/05 20:01:11;;;;;;;1.25;0.88;;;20.70;91.70;;;;;;5082152;28;20024;-63
2021/03/05 20:03:37;;;;;;;1.98;0.90;;;20.60;91.70;;;;;;5107443;28;20076;-62
2021/03/05 20:06:04;;;;;;;1.02;0.73;;;20.50;91.70;;;;;;5096689;28;20475;-66
2021/03/05 20:08:31;;;;;;;2.58;1.00;;;20.40;91.80;;;;;;5082338;28;20436;-64
2021/03/05 20:10:57;;;;;;;1.63;0.95;;;20.40;92.00;;;;;;5082041;28;20103;-62
2021/03/05 20:13:22;;;;;;;1.65;1.00;;;20.30;92.10;;;;;;5090050;28;20180;-61
2021/03/05 20:15:49;;;;;;;2.38;0.93;;;20.20;92.10;;;;;;5090290;28;20028;-65
2021/03/05 20:18:14;;;;;;;1.08;0.80;;;20.20;92.20;;;;;;5091568;28;20387;-65
2021/03/05 20:20:40;;;;;;;1.77;0.80;;;20.10;92.30;;;;;;5091415;28;20031;-63
2021/03/05 20:23:06;;;;;;;3.05;1.08;;;20.10;92.30;;;;;;5092015;28;20070;-66
2021/03/05 20:25:32;;;;;;;1.98;1.00;;;20.00;92.30;;;;;;5083381;28;20020;-65
2021/03/05 20:27:57;;;;;;;2.05;1.13;;;19.90;92.30;;;;;;5081278;28;20089;-63
2021/03/05 20:30:23;;;;;;;2.63;1.25;;;19.80;92.40;;;;;;5090926;28;20016;-62
2021/03/05 20:32:49;;;;;;;2.00;1.17;;;19.80;92.50;;;;;;5090925;28;20024;-60
2021/03/05 20:35:16;;;;;;;2.20;1.13;;;19.70;92.60;;;;;;5091431;28;20027;-60
2021/03/05 20:37:41;;;;;;;2.38;1.10;;;19.60;92.60;;;;;;5091773;28;20110;-60
2021/03/05 20:40:09;;;;;;;2.05;1.10;;;19.60;92.60;;;;;;5091337;28;20111;-61
2021/03/05 20:42:35;;;;;;;2.17;1.27;;;19.50;92.70;;;;;;5088686;28;20487;-60
2021/03/05 20:45:01;;;;;;;3.03;1.02;;;19.50;92.80;;;;;;5090375;28;20110;-61
2021/03/05 20:47:27;;;;;;;1.67;1.02;;;19.40;92.70;;;;;;5090594;28;20161;-62
2021/03/05 20:49:53;;;;;;;2.72;1.27;;;19.40;93.10;;;;;;5094122;28;20022;-61
2021/03/05 20:52:19;;;;;;;2.15;1.10;;;19.30;92.80;;;;;;5097595;28;20481;-61
2021/03/05 20:54:45;;;;;;;5.60;1.42;;;19.20;92.80;;;;;;5091074;28;20041;-61
2021/03/05 20:57:11;;;;;;;2.25;1.15;;;19.20;92.80;;;;;;5092675;28;20028;-61
2021/03/05 20:59:36;;;;;;;2.60;1.15;;;19.10;92.80;;;;;;5102489;28;20479;-61
2021/03/05 21:02:02;;;;;;;2.33;1.40;;;19.10;92.80;;;;;;5097065;28;20020;-60
2021/03/05 21:04:28;;;;;;;2.72;1.40;;;19.00;92.80;;;;;;5091766;28;20024;-60
2021/03/05 21:06:54;;;;;;;1.90;1.23;;;19.00;92.80;;;;;;5091703;28;20024;-62
2021/03/05 21:09:19;;;;;;;3.67;1.40;;;18.90;92.90;;;;;;5091588;28;20453;-60
2021/03/05 21:11:46;;;;;;;2.83;1.25;;;18.90;93.00;;;;;;5091624;28;20042;-60
2021/03/05 21:14:13;;;;;;;3.08;1.70;;;18.80;93.00;;;;;;5091534;28;20035;-62
2021/03/05 21:16:39;;;;;;;2.15;1.30;;;18.80;93.10;;;;;;5091370;28;20246;-60
2021/03/05 21:19:05;;;;;;;2.63;1.30;;;18.80;93.20;;;;;;5091436;28;20111;-63
2021/03/05 21:21:32;;;;;;;4.22;1.30;;;18.80;93.40;;;;;;5090580;28;20075;-61